createdAt,value
2019-06-07T00:00:37.175Z,5.50
2019-06-07T00:02:44.229Z,5.40
2019-06-07T00:05:14.945Z,6.60
2019-06-07T00:07:42.069Z,5.40
2019-06-07T00:10:15.441Z,7.40
2019-06-07T00:12:40.021Z,7.43
2019-06-07T00:15:11.644Z,5.43
2019-06-07T00:17:37.841Z,7.53
2019-06-07T00:20:05.757Z,6.20
2019-06-07T00:22:33.908Z,7.50
2019-06-07T00:25:02.727Z,7.07
2019-06-07T00:27:30.654Z,6.17
2019-06-07T00:29:58.504Z,6.27
2019-06-07T00:32:26.452Z,7.77
2019-06-07T00:34:54.247Z,6.97
2019-06-07T00:37:25.064Z,5.77
2019-06-07T00:40:12.964Z,7.17
2019-06-07T00:42:23.782Z,5.20
2019-06-07T00:44:50.408Z,6.73
2019-06-07T00:47:23.005Z,7.33
2019-06-07T00:49:48.081Z,6.47
2019-06-07T00:53:10.643Z,7.83
2019-06-07T00:54:45.453Z,8.17
2019-06-07T00:57:16.223Z,6.47
2019-06-07T00:59:42.640Z,5.23
2019-06-07T01:02:10.634Z,6.37
2019-06-07T01:04:38.543Z,6.70
2019-06-07T01:07:06.158Z,8.23
2019-06-07T01:09:34.073Z,6.10
2019-06-07T01:12:02.363Z,7.83
2019-06-07T01:14:29.973Z,6.50
2019-06-07T01:17:21.993Z,5.97
2019-06-07T01:19:27.983Z,9.30
2019-06-07T01:21:55.760Z,5.73
2019-06-07T01:24:25.767Z,6.90
2019-06-07T01:26:53.433Z,6.80
2019-06-07T01:29:22.296Z,8.07
2019-06-07T01:31:50.945Z,7.17
2019-06-07T01:34:21.231Z,6.53
2019-06-07T01:36:48.424Z,7.60
2019-06-07T01:39:16.380Z,6.43
2019-06-07T01:42:28.877Z,10.60
2019-06-07T01:44:54.690Z,8.00
2019-06-07T01:47:25.616Z,5.97
2019-06-07T01:49:51.575Z,7.13
2019-06-07T01:52:23.553Z,7.97
2019-06-07T01:54:57.349Z,7.00
2019-06-07T01:57:36.219Z,8.77
2019-06-07T01:59:47.668Z,6.07
2019-06-07T02:02:15.333Z,7.80
2019-06-07T02:04:43.043Z,6.20
2019-06-07T02:07:10.632Z,6.97
2019-06-07T02:09:38.526Z,7.43
2019-06-07T02:12:25.013Z,6.70
2019-06-07T02:14:35.953Z,5.77
2019-06-07T02:17:03.856Z,7.80
2019-06-07T02:19:33.270Z,7.77
2019-06-07T02:22:01.200Z,8.63
2019-06-07T02:24:32.362Z,9.90
2019-06-07T02:26:58.773Z,7.13
2019-06-07T02:29:30.293Z,7.80
2019-06-07T02:31:55.806Z,11.50
2019-06-07T02:34:24.934Z,10.93
2019-06-07T02:36:53.226Z,8.53
2019-06-07T02:39:23.994Z,6.93
2019-06-07T02:41:50.560Z,5.80
2019-06-07T02:44:18.175Z,5.43
2019-06-07T02:46:49.638Z,7.93
2019-06-07T02:49:15.909Z,5.93
2019-06-07T02:51:43.552Z,7.57
2019-06-07T02:54:11.194Z,8.53
2019-06-07T02:56:56.677Z,5.03
2019-06-07T02:59:08.774Z,6.40
2019-06-07T03:01:41.227Z,6.23
2019-06-07T03:04:05.839Z,6.37
2019-06-07T03:06:38.920Z,11.43
2019-06-07T03:09:05.702Z,6.30
2019-06-07T03:11:36.928Z,7.33
2019-06-07T03:14:03.901Z,7.70
2019-06-07T03:16:39.153Z,5.90
2019-06-07T03:19:11.829Z,8.43
2019-06-07T03:21:42.201Z,7.07
2019-06-07T03:24:10.352Z,5.27
2019-06-07T03:27:30.359Z,11.57
2019-06-07T03:29:28.533Z,5.20
2019-06-07T03:31:54.910Z,7.90
2019-06-07T03:34:22.476Z,8.20
2019-06-07T03:36:50.379Z,8.57
2019-06-07T03:39:18.242Z,8.33
2019-06-07T03:42:04.745Z,8.23
2019-06-07T03:44:15.362Z,8.23
2019-06-07T03:46:42.927Z,11.57
2019-06-07T03:49:10.487Z,11.57
2019-06-07T03:51:40.810Z,7.03
2019-06-07T03:54:07.729Z,8.87
2019-06-07T03:56:36.050Z,8.87
2019-06-07T03:59:04.932Z,10.90
2019-06-07T04:01:34.743Z,6.60
2019-06-07T04:04:01.821Z,5.83
2019-06-07T04:06:32.495Z,6.80
2019-06-07T04:08:59.188Z,4.53
2019-06-07T04:11:27.788Z,5.83
2019-06-07T04:13:56.465Z,7.37
2019-06-07T04:16:24.392Z,7.87
2019-06-07T04:18:54.772Z,12.07
2019-06-07T04:21:23.019Z,7.03
2019-06-07T04:23:50.856Z,6.10
2019-06-07T04:29:56.840Z,7.73
2019-06-07T04:32:04.536Z,7.10
2019-06-07T04:34:36.461Z,6.63
2019-06-07T04:37:01.872Z,5.47
2019-06-07T04:39:32.207Z,6.97
2019-06-07T04:41:59.860Z,8.20
2019-06-07T04:44:28.770Z,9.57
2019-06-07T04:46:58.108Z,10.00
2019-06-07T04:49:25.939Z,9.30
2019-06-07T04:51:55.489Z,9.37
2019-06-07T04:54:23.513Z,11.90
2019-06-07T04:56:51.367Z,15.70
2019-06-07T05:00:01.374Z,15.20
2019-06-07T05:01:48.411Z,12.80
2019-06-07T05:04:16.065Z,13.60
2019-06-07T05:06:44.106Z,11.77
2019-06-07T05:09:12.018Z,10.77
2019-06-07T05:11:44.763Z,9.70
2019-06-07T05:14:09.781Z,11.33
2019-06-07T05:16:40.670Z,11.93
2019-06-07T05:19:07.010Z,10.90
2019-06-07T05:21:58.331Z,11.37
2019-06-07T05:24:09.801Z,8.33
2019-06-07T05:26:38.516Z,11.67
2019-06-07T05:29:03.492Z,7.53
2019-06-07T05:31:35.285Z,7.73
2019-06-07T05:34:00.792Z,6.43
2019-06-07T05:36:28.494Z,6.17
2019-06-07T05:38:56.440Z,7.40
2019-06-07T05:41:24.151Z,9.10
2019-06-07T05:44:11.636Z,4.77
2019-06-07T05:46:21.735Z,5.77
2019-06-07T05:48:49.823Z,5.70
2019-06-07T05:51:17.532Z,5.13
2019-06-07T05:53:46.102Z,4.57
2019-06-07T05:56:14.815Z,4.53
2019-06-07T05:58:44.639Z,4.27
2019-06-07T06:01:42.030Z,7.73
2019-06-07T06:03:44.055Z,2.53
2019-06-07T06:06:11.724Z,4.03
2019-06-07T06:08:41.734Z,3.07
2019-06-07T06:11:09.242Z,4.77
2019-06-07T06:13:55.066Z,5.33
2019-06-07T06:16:06.576Z,2.93
2019-06-07T06:18:35.412Z,2.90
2019-06-07T06:21:16.096Z,4.90
2019-06-07T06:23:32.738Z,4.07
2019-06-07T06:26:00.509Z,4.33
2019-06-07T06:28:28.477Z,7.00
2019-06-07T06:30:56.324Z,2.73
2019-06-07T06:33:33.769Z,3.53
2019-06-07T06:35:53.537Z,5.87
2019-06-07T06:38:22.690Z,7.83
2019-06-07T06:41:11.739Z,3.80
2019-06-07T06:43:19.785Z,3.00
2019-06-07T06:45:50.492Z,2.23
2019-06-07T06:48:17.270Z,3.53
2019-06-07T06:50:49.019Z,2.77
2019-06-07T06:53:14.412Z,2.87
2019-06-07T06:55:43.807Z,4.90
2019-06-07T06:58:11.529Z,2.80
2019-06-07T07:00:53.431Z,2.67
2019-06-07T07:03:54.154Z,7.47
2019-06-07T07:05:48.640Z,3.10
2019-06-07T07:08:14.637Z,4.33
2019-06-07T07:10:43.278Z,3.73
2019-06-07T07:13:11.218Z,3.33
2019-06-07T07:15:39.080Z,5.00
2019-06-07T07:18:08.850Z,3.67
2019-06-07T07:20:36.116Z,2.03
2019-06-07T07:23:04.584Z,2.37
2019-06-07T07:25:32.368Z,1.77
2019-06-07T07:28:14.543Z,2.77
2019-06-07T07:30:47.385Z,4.10
2019-06-07T07:33:15.636Z,2.70
2019-06-07T07:36:07.588Z,4.60
2019-06-07T07:38:13.391Z,5.50
2019-06-07T07:41:01.604Z,4.63
2019-06-07T07:43:10.529Z,2.13
2019-06-07T07:45:38.226Z,3.90
2019-06-07T07:48:15.390Z,1.60
2019-06-07T07:50:35.310Z,6.93
2019-06-07T07:53:02.898Z,3.93
2019-06-07T07:55:30.598Z,3.57
2019-06-07T07:58:01.742Z,2.30
2019-06-07T08:03:00.852Z,1.90
2019-06-07T08:05:41.981Z,4.20
2019-06-07T08:08:00.278Z,2.40
2019-06-07T08:10:26.124Z,1.93
2019-06-07T08:13:18.187Z,3.30
2019-06-07T08:15:23.637Z,1.50
2019-06-07T08:17:58.061Z,2.63
2019-06-07T08:20:21.303Z,3.77
2019-06-07T08:22:49.998Z,2.50
2019-06-07T08:25:19.957Z,1.87
2019-06-07T08:27:51.889Z,3.33
2019-06-07T08:30:50.036Z,2.30
2019-06-07T08:32:55.913Z,1.93
2019-06-07T08:36:03.128Z,1.83
2019-06-07T08:38:21.656Z,1.37
2019-06-07T08:40:25.041Z,1.50
2019-06-07T08:43:11.365Z,2.20
2019-06-07T08:45:22.684Z,2.03
2019-06-07T08:47:53.573Z,4.60
2019-06-07T08:50:20.708Z,1.57
2019-06-07T08:52:48.641Z,6.73
2019-06-07T08:55:16.707Z,1.10
2019-06-07T08:57:44.570Z,1.40
2019-06-07T09:00:43.119Z,2.20
2019-06-07T09:02:43.311Z,1.60
2019-06-07T09:05:14.061Z,1.60
2019-06-07T09:07:42.077Z,3.90
2019-06-07T09:10:14.130Z,1.73
2019-06-07T09:12:39.401Z,2.33
2019-06-07T09:15:20.867Z,4.50
2019-06-07T09:17:37.586Z,3.40
2019-06-07T09:20:21.754Z,3.27
2019-06-07T09:22:35.823Z,3.97
2019-06-07T09:25:12.146Z,1.93
2019-06-07T09:27:33.225Z,4.33
2019-06-07T09:30:08.042Z,2.20
2019-06-07T09:32:30.278Z,1.87
2019-06-07T09:35:02.498Z,2.17
2019-06-07T09:40:05.698Z,2.87
2019-06-07T09:42:27.049Z,2.77
2019-06-07T09:44:54.705Z,2.40
2019-06-07T09:47:32.533Z,1.30
2019-06-07T09:49:51.643Z,1.93
2019-06-07T09:52:20.248Z,3.83
2019-06-07T09:55:12.074Z,2.17
2019-06-07T09:57:18.105Z,2.47
2019-06-07T09:59:46.855Z,4.10
2019-06-07T10:02:14.711Z,3.93
2019-06-07T10:04:42.583Z,3.73
2019-06-07T10:07:30.553Z,2.13
2019-06-07T10:10:11.644Z,1.97
2019-06-07T10:12:12.213Z,5.23
2019-06-07T10:14:39.872Z,1.80
2019-06-07T10:17:09.085Z,1.70
2019-06-07T10:19:36.707Z,5.13
2019-06-07T10:22:05.736Z,2.17
2019-06-07T10:24:33.607Z,1.77
2019-06-07T10:27:01.747Z,1.23
2019-06-07T10:29:29.743Z,3.83
2019-06-07T10:31:57.937Z,2.90
2019-06-07T10:34:25.555Z,2.93
2019-06-07T10:36:53.256Z,5.20
2019-06-07T10:39:20.857Z,1.83
2019-06-07T10:41:48.766Z,1.30
2019-06-07T10:44:16.557Z,1.60
2019-06-07T10:46:44.370Z,2.47
2019-06-07T10:49:12.268Z,2.50
2019-06-07T10:51:40.086Z,3.70
2019-06-07T10:54:23.560Z,2.90
2019-06-07T10:56:37.425Z,1.87
2019-06-07T10:59:05.400Z,1.60
2019-06-07T11:01:33.215Z,2.07
2019-06-07T11:04:01.097Z,2.23
2019-06-07T11:06:28.926Z,3.23
2019-06-07T11:08:57.244Z,2.47
2019-06-07T11:11:24.780Z,1.37
2019-06-07T11:13:52.632Z,1.67
2019-06-07T11:16:20.533Z,1.23
2019-06-07T11:18:48.112Z,2.67
2019-06-07T11:21:18.552Z,2.50
2019-06-07T11:23:45.146Z,3.80
2019-06-07T11:26:12.794Z,1.20
2019-06-07T11:28:40.444Z,1.37
2019-06-07T11:31:13.701Z,1.63
2019-06-07T11:33:43.216Z,2.17
2019-06-07T11:36:12.725Z,1.57
2019-06-07T11:38:40.764Z,1.27
2019-06-07T11:41:09.392Z,4.12
2019-06-07T11:43:37.332Z,4.30
2019-06-07T11:46:05.246Z,3.03
2019-06-07T11:48:33.222Z,1.40
2019-06-07T11:51:00.812Z,1.87
2019-06-07T11:53:28.820Z,1.47
2019-06-07T11:55:56.708Z,2.83
2019-06-07T11:58:24.579Z,2.92
2019-06-07T12:00:52.272Z,5.15
2019-06-07T12:03:20.167Z,2.30
2019-06-07T12:05:48.109Z,3.12
2019-06-07T12:08:16.161Z,1.40
2019-06-07T12:10:44.060Z,1.90
2019-06-07T12:13:12.589Z,1.75
2019-06-07T12:15:40.396Z,2.35
2019-06-07T12:18:09.197Z,2.87
2019-06-07T12:20:37.114Z,2.45
2019-06-07T12:23:05.004Z,2.70
2019-06-07T12:25:39.820Z,3.92
2019-06-07T12:28:08.954Z,1.70
2019-06-07T12:30:36.587Z,0.90
2019-06-07T12:33:07.629Z,4.37
2019-06-07T12:35:35.340Z,2.00
2019-06-07T12:38:03.258Z,6.12
2019-06-07T12:40:32.385Z,1.50
2019-06-07T12:43:07.453Z,7.80
2019-06-07T12:45:44.559Z,2.67
2019-06-07T12:48:22.711Z,2.22
2019-06-07T12:50:43.931Z,1.60
2019-06-07T12:53:29.828Z,1.30
2019-06-07T12:56:24.263Z,2.55
2019-06-07T12:59:09.030Z,1.82
2019-06-07T13:01:38.681Z,1.30
2019-06-07T13:04:20.513Z,1.92
2019-06-07T13:07:17.965Z,2.25
2019-06-07T13:10:00.212Z,1.32
2019-06-07T13:12:23.847Z,2.27
2019-06-07T13:14:55.942Z,5.90
2019-06-07T13:18:21.719Z,2.47
2019-06-07T13:21:34.015Z,1.62
2019-06-07T13:23:54.148Z,1.30
2019-06-07T13:26:22.999Z,1.22
2019-06-07T13:28:54.324Z,1.98
2019-06-07T13:31:23.447Z,2.37
2019-06-07T13:33:54.821Z,1.37
2019-06-07T13:36:22.594Z,4.33
2019-06-07T13:38:52.814Z,5.17
2019-06-07T13:41:36.816Z,5.17
2019-06-07T13:43:51.819Z,2.90
2019-06-07T13:46:23.129Z,4.45
2019-06-07T13:48:51.210Z,3.52
2019-06-07T13:51:22.901Z,1.45
2019-06-07T13:53:53.964Z,2.50
2019-06-07T13:56:26.076Z,2.77
2019-06-07T13:58:54.402Z,1.85
2019-06-07T14:01:22.520Z,4.30
2019-06-07T14:03:53.312Z,3.47
2019-06-07T14:06:21.448Z,1.77
2019-06-07T14:08:51.558Z,6.42
2019-06-07T14:11:21.426Z,2.75
2019-06-07T14:13:52.462Z,2.40
2019-06-07T14:16:22.094Z,2.60
2019-06-07T14:18:50.312Z,2.10
2019-06-07T14:21:20.388Z,1.40
2019-06-07T14:23:49.444Z,1.10
2019-06-07T14:26:17.695Z,2.42
2019-06-07T14:28:45.710Z,1.35
2019-06-07T14:31:13.570Z,2.15
2019-06-07T14:33:41.609Z,3.45
2019-06-07T14:36:10.723Z,4.23
2019-06-07T14:38:38.626Z,2.70
2019-06-07T14:41:06.562Z,2.57
2019-06-07T14:43:34.340Z,1.77
2019-06-07T14:46:03.007Z,2.37
2019-06-07T14:48:32.849Z,3.30
2019-06-07T14:51:00.896Z,2.02
2019-06-07T14:53:28.865Z,2.62
2019-06-07T14:55:56.622Z,2.47
2019-06-07T14:58:25.031Z,1.57
2019-06-07T15:00:52.942Z,3.60
2019-06-07T15:03:20.862Z,1.62
2019-06-07T15:05:48.716Z,1.53
2019-06-07T15:08:19.588Z,1.23
2019-06-07T15:10:48.871Z,1.83
2019-06-07T15:13:16.832Z,2.40
2019-06-07T15:15:45.055Z,1.23
2019-06-07T15:18:14.577Z,1.67
2019-06-07T15:20:42.577Z,4.20
2019-06-07T15:23:10.535Z,4.50
2019-06-07T15:25:42.032Z,2.33
2019-06-07T15:28:11.637Z,3.03
2019-06-07T15:30:41.866Z,1.30
2019-06-07T15:33:09.880Z,3.53
2019-06-07T15:35:39.130Z,1.27
2019-06-07T15:38:07.348Z,1.67
2019-06-07T15:40:40.872Z,1.17
2019-06-07T15:43:10.761Z,1.40
2019-06-07T15:46:01.897Z,3.50
2019-06-07T15:48:38.320Z,1.53
2019-06-07T15:51:08.041Z,1.53
2019-06-07T15:53:44.067Z,2.70
2019-06-07T15:56:12.332Z,1.27
2019-06-07T15:58:49.519Z,1.50
2019-06-07T16:01:26.220Z,2.80
2019-06-07T16:03:58.623Z,4.27
2019-06-07T16:06:36.067Z,2.40
2019-06-07T16:09:06.340Z,2.83
2019-06-07T16:11:44.834Z,2.13
2019-06-07T16:14:13.356Z,1.30
2019-06-07T16:16:43.475Z,6.20
2019-06-07T16:19:18.997Z,6.10
2019-06-07T16:21:57.843Z,1.40
2019-06-07T16:24:52.358Z,1.53
2019-06-07T16:26:59.524Z,2.77
2019-06-07T16:29:27.381Z,3.53
2019-06-07T16:32:43.942Z,1.40
2019-06-07T16:35:09.736Z,2.67
2019-06-07T16:37:45.828Z,2.53
2019-06-07T16:40:22.919Z,1.30
2019-06-07T16:42:51.626Z,1.47
2019-06-07T16:45:20.334Z,1.40
2019-06-07T16:47:51.697Z,4.70
2019-06-07T16:50:30.158Z,1.93
2019-06-07T16:53:00.020Z,2.43
2019-06-07T16:55:30.489Z,4.23
2019-06-07T16:57:58.799Z,14.03
2019-06-07T17:00:28.631Z,3.10
2019-06-07T17:02:59.248Z,2.10
2019-06-07T17:05:27.443Z,2.63
2019-06-07T17:07:55.716Z,3.33
2019-06-07T17:10:27.861Z,1.77
2019-06-07T17:12:55.866Z,4.47
2019-06-07T17:15:24.568Z,1.60
2019-06-07T17:17:54.208Z,2.77
2019-06-07T17:20:24.292Z,3.53
2019-06-07T17:23:01.702Z,1.90
2019-06-07T17:25:27.023Z,4.40
2019-06-07T17:27:57.677Z,1.70
2019-06-07T17:30:27.377Z,2.87
2019-06-07T17:32:59.274Z,1.73
2019-06-07T17:35:26.184Z,2.83
2019-06-07T17:37:55.573Z,2.03
2019-06-07T17:40:23.341Z,2.83
2019-06-07T17:43:08.787Z,2.63
2019-06-07T17:45:35.034Z,2.00
2019-06-07T17:48:04.890Z,3.17
2019-06-07T17:50:34.946Z,3.03
2019-06-07T17:53:05.982Z,2.50
2019-06-07T17:55:36.267Z,2.33
2019-06-07T17:58:06.423Z,5.07
2019-06-07T18:01:01.074Z,2.63
2019-06-07T18:03:28.917Z,5.27
2019-06-07T18:05:57.356Z,2.10
2019-06-07T18:08:29.023Z,2.23
2019-06-07T18:10:58.280Z,4.50
2019-06-07T18:13:27.493Z,4.47
2019-06-07T18:16:00.010Z,3.93
2019-06-07T18:18:35.320Z,4.03
2019-06-07T18:21:06.318Z,4.67
2019-06-07T18:23:35.907Z,4.13
2019-06-07T18:26:44.137Z,3.83
2019-06-07T18:29:08.121Z,6.17
2019-06-07T18:31:53.140Z,3.53
2019-06-07T18:34:26.799Z,5.30
2019-06-07T18:37:08.280Z,4.43
2019-06-07T18:39:36.260Z,3.67
2019-06-07T18:42:05.819Z,3.70
2019-06-07T18:44:38.564Z,5.30
2019-06-07T18:47:07.661Z,2.83
2019-06-07T18:49:36.210Z,4.23
2019-06-07T18:52:34.050Z,2.70
2019-06-07T18:54:57.048Z,3.50
2019-06-07T18:57:25.221Z,2.73
2019-06-07T18:59:56.615Z,3.90
2019-06-07T19:02:24.784Z,2.97
2019-06-07T19:04:54.579Z,5.37
2019-06-07T19:07:24.232Z,3.43
2019-06-07T19:09:56.923Z,3.43
2019-06-07T19:12:31.274Z,3.60
2019-06-07T19:15:44.772Z,3.70
2019-06-07T19:17:44.706Z,5.37
2019-06-07T19:20:30.148Z,3.87
2019-06-07T19:22:54.207Z,5.40
2019-06-07T19:25:22.529Z,3.60
2019-06-07T19:28:01.092Z,3.93
2019-06-07T19:30:29.638Z,4.30
2019-06-07T19:33:08.360Z,5.50
2019-06-07T19:35:40.722Z,3.27
2019-06-07T19:38:10.391Z,4.50
2019-06-07T19:40:39.600Z,6.17
2019-06-07T19:43:16.116Z,5.23
2019-06-07T19:45:48.229Z,3.13
2019-06-07T19:48:21.981Z,3.40
2019-06-07T19:50:52.864Z,6.10
2019-06-07T19:53:19.701Z,3.30
2019-06-07T19:55:57.610Z,5.87
2019-06-07T19:58:26.910Z,6.10
2019-06-07T20:01:02.141Z,4.97
2019-06-07T20:03:40.979Z,4.07
2019-06-07T20:06:09.086Z,6.50
2019-06-07T20:08:44.582Z,7.90
2019-06-07T20:11:23.292Z,7.03
2019-06-07T20:13:52.496Z,5.73
2019-06-07T20:16:20.574Z,9.07
2019-06-07T20:18:51.178Z,7.53
2019-06-07T20:21:27.076Z,6.37
2019-06-07T20:23:56.805Z,10.13
2019-06-07T20:26:25.293Z,5.67
2019-06-07T20:29:03.455Z,8.07
2019-06-07T20:31:29.283Z,6.23
2019-06-07T20:34:00.603Z,8.83
2019-06-07T20:36:31.445Z,5.93
2019-06-07T20:39:04.101Z,9.27
2019-06-07T20:41:33.816Z,11.57
2019-06-07T20:44:01.935Z,6.60
2019-06-07T20:46:30.278Z,6.83
2019-06-07T20:49:00.430Z,9.40
2019-06-07T20:51:28.705Z,7.13
2019-06-07T20:54:02.685Z,9.37
2019-06-07T20:56:33.217Z,6.43
2019-06-07T20:59:02.855Z,7.00
2019-06-07T21:01:31.421Z,9.57
2019-06-07T21:04:01.406Z,9.30
2019-06-07T21:06:29.921Z,10.67
2019-06-07T21:09:01.507Z,10.80
2019-06-07T21:11:29.865Z,8.33
2019-06-07T21:14:01.982Z,10.07
2019-06-07T21:16:32.811Z,9.83
2019-06-07T21:19:30.628Z,7.43
2019-06-07T21:21:57.834Z,9.87
2019-06-07T21:24:30.922Z,7.93
2019-06-07T21:27:07.373Z,14.50
2019-06-07T21:29:42.295Z,13.53
2019-06-07T21:32:14.508Z,15.23
2019-06-07T21:34:48.310Z,10.67
2019-06-07T21:37:18.859Z,13.80
2019-06-07T21:39:50.406Z,11.20
2019-06-07T21:42:23.196Z,13.93
2019-06-07T21:44:53.491Z,12.30
2019-06-07T21:47:21.708Z,12.13
2019-06-07T21:49:51.366Z,14.83
2019-06-07T21:52:21.346Z,11.17
2019-06-07T21:54:49.241Z,14.97
2019-06-07T21:57:16.997Z,19.83
2019-06-07T21:59:44.989Z,13.23
2019-06-07T22:02:13.750Z,13.10
2019-06-07T22:04:43.284Z,15.83
2019-06-07T22:07:11.780Z,14.30
2019-06-07T22:09:39.785Z,12.10
2019-06-07T22:12:10.144Z,13.53
2019-06-07T22:14:38.389Z,11.33
2019-06-07T22:17:08.226Z,10.43
2019-06-07T22:19:36.361Z,11.83
2019-06-07T22:22:05.219Z,12.93
2019-06-07T22:24:34.195Z,13.67
2019-06-07T22:27:02.485Z,11.17
2019-06-07T22:29:33.440Z,11.90
2019-06-07T22:32:01.987Z,16.97
2019-06-07T22:34:29.813Z,12.33
2019-06-07T22:36:58.254Z,13.17
2019-06-07T22:39:26.299Z,10.20
2019-06-07T22:41:54.054Z,12.97
2019-06-07T22:44:22.253Z,12.37
2019-06-07T22:46:50.513Z,10.47
2019-06-07T22:49:19.596Z,11.17
2019-06-07T22:51:47.444Z,12.93
2019-06-07T22:54:16.106Z,11.17
2019-06-07T22:56:54.361Z,10.83
2019-06-07T22:59:22.274Z,12.33
2019-06-07T23:01:51.447Z,11.23
2019-06-07T23:04:19.340Z,9.50
2019-06-07T23:06:47.435Z,12.50
2019-06-07T23:09:15.378Z,9.90
2019-06-07T23:11:43.405Z,11.63
2019-06-07T23:14:11.265Z,10.13
2019-06-07T23:16:54.347Z,9.23
2019-06-07T23:19:10.082Z,10.30
2019-06-07T23:21:38.298Z,12.40
2019-06-07T23:24:06.378Z,10.60
2019-06-07T23:26:34.399Z,11.27
2019-06-07T23:29:02.163Z,10.70
2019-06-07T23:31:30.023Z,8.83
2019-06-07T23:33:57.843Z,10.30
2019-06-07T23:36:26.148Z,9.50
2019-06-07T23:38:53.929Z,12.63
2019-06-07T23:41:22.403Z,10.70
2019-06-07T23:43:50.450Z,13.83
2019-06-07T23:46:19.455Z,10.23
2019-06-07T23:48:47.298Z,11.70
2019-06-07T23:51:15.600Z,10.40
2019-06-07T23:53:43.658Z,13.63
2019-06-07T23:56:11.763Z,10.53
2019-06-07T23:58:39.514Z,12.10
